createdAt,value
2022-11-07T00:00:29.823Z,10.70
2022-11-07T00:02:01.960Z,10.70
2022-11-07T00:03:33.623Z,10.70
2022-11-07T00:05:05.976Z,10.70
2022-11-07T00:06:37.773Z,10.70
2022-11-07T00:08:09.557Z,10.70
2022-11-07T00:09:41.237Z,10.70
2022-11-07T00:11:12.945Z,10.70
2022-11-07T00:12:44.549Z,10.70
2022-11-07T00:14:17.474Z,10.70
2022-11-07T00:15:49.158Z,10.70
2022-11-07T00:17:20.799Z,10.70
2022-11-07T00:18:53.076Z,10.70
2022-11-07T00:20:25.001Z,10.70
2022-11-07T00:21:56.758Z,10.70
2022-11-07T00:23:28.482Z,10.70
2022-11-07T00:25:00.163Z,10.70
2022-11-07T00:26:31.828Z,10.70
2022-11-07T00:28:03.905Z,10.70
2022-11-07T00:29:35.536Z,10.70
2022-11-07T00:31:09.352Z,10.70
2022-11-07T00:32:40.944Z,10.70
2022-11-07T00:34:12.649Z,10.70
2022-11-07T00:35:44.368Z,10.70
2022-11-07T00:37:15.986Z,10.70
2022-11-07T00:38:47.693Z,10.70
2022-11-07T00:40:19.386Z,10.70
2022-11-07T00:41:51.189Z,10.70
2022-11-07T00:43:23.536Z,10.70
2022-11-07T00:44:55.187Z,10.70
2022-11-07T00:46:26.865Z,10.70
2022-11-07T00:47:58.500Z,10.70
2022-11-07T00:49:30.198Z,10.70
2022-11-07T00:51:06.869Z,10.70
2022-11-07T00:52:38.469Z,10.70
2022-11-07T00:54:10.236Z,10.70
2022-11-07T00:55:41.914Z,10.70
2022-11-07T00:57:13.557Z,10.70
2022-11-07T00:58:45.210Z,10.70
2022-11-07T01:00:17.039Z,10.70
2022-11-07T01:01:48.808Z,10.70
2022-11-07T01:03:39.153Z,10.70
2022-11-07T01:05:11.611Z,10.70
2022-11-07T01:06:45.289Z,10.70
2022-11-07T01:08:17.010Z,10.70
2022-11-07T01:09:48.763Z,10.70
2022-11-07T01:11:21.194Z,10.60
2022-11-07T01:12:52.823Z,10.70
2022-11-07T01:14:24.857Z,10.70
2022-11-07T01:15:56.511Z,10.60
2022-11-07T01:17:28.142Z,10.70
2022-11-07T01:18:59.806Z,10.60
2022-11-07T01:20:31.400Z,10.60
2022-11-07T01:22:03.106Z,10.60
2022-11-07T01:23:35.271Z,10.60
2022-11-07T01:25:07.462Z,10.60
2022-11-07T01:26:40.715Z,10.60
2022-11-07T01:28:12.349Z,10.60
2022-11-07T01:29:44.028Z,10.60
2022-11-07T01:31:16.764Z,10.60
2022-11-07T01:32:48.391Z,10.70
2022-11-07T01:34:20.088Z,10.60
2022-11-07T01:35:51.714Z,10.60
2022-11-07T01:37:23.333Z,10.60
2022-11-07T01:38:55.117Z,10.60
2022-11-07T01:40:27.612Z,10.60
2022-11-07T01:41:59.399Z,10.60
2022-11-07T01:44:00.263Z,10.60
2022-11-07T01:45:31.999Z,10.60
2022-11-07T01:47:03.704Z,10.60
2022-11-07T01:48:35.434Z,10.60
2022-11-07T01:50:07.899Z,10.60
2022-11-07T01:51:47.598Z,10.60
2022-11-07T01:53:19.270Z,10.60
2022-11-07T01:55:21.238Z,10.60
2022-11-07T01:56:55.598Z,10.70
2022-11-07T01:58:27.530Z,10.60
2022-11-07T02:00:01.654Z,10.60
2022-11-07T02:01:36.516Z,10.60
2022-11-07T02:03:11.438Z,10.60
2022-11-07T02:04:43.469Z,10.60
2022-11-07T02:06:23.998Z,10.60
2022-11-07T02:07:56.497Z,10.60
2022-11-07T02:09:28.489Z,10.60
2022-11-07T02:11:02.581Z,10.60
2022-11-07T02:12:34.267Z,10.60
2022-11-07T02:14:05.983Z,10.60
2022-11-07T02:15:37.846Z,10.60
2022-11-07T02:17:13.930Z,10.60
2022-11-07T02:18:46.351Z,10.60
2022-11-07T02:20:18.438Z,10.60
2022-11-07T02:22:12.586Z,10.60
2022-11-07T02:24:06.514Z,10.60
2022-11-07T02:25:38.530Z,10.60
2022-11-07T02:27:14.564Z,10.60
2022-11-07T02:28:48.328Z,10.60
2022-11-07T02:30:23.914Z,10.70
2022-11-07T02:32:07.279Z,10.70
2022-11-07T02:33:38.917Z,10.60
2022-11-07T02:35:28.726Z,10.60
2022-11-07T02:37:05.405Z,10.60
2022-11-07T02:38:37.823Z,10.60
2022-11-07T02:40:10.136Z,10.60
2022-11-07T02:41:41.820Z,10.60
2022-11-07T02:43:16.711Z,10.60
2022-11-07T02:44:48.813Z,10.60
2022-11-07T02:46:22.065Z,10.60
2022-11-07T02:47:53.753Z,10.60
2022-11-07T02:49:25.379Z,10.60
2022-11-07T02:50:57.387Z,10.70
2022-11-07T02:52:29.016Z,10.60
2022-11-07T02:54:00.624Z,10.60
2022-11-07T02:55:32.274Z,10.60
2022-11-07T02:57:04.160Z,10.60
2022-11-07T02:58:36.211Z,10.60
2022-11-07T03:00:10.381Z,10.60
2022-11-07T03:01:42.096Z,10.60
2022-11-07T03:03:14.493Z,10.60
2022-11-07T03:04:49.086Z,10.60
2022-11-07T03:06:24.162Z,10.60
2022-11-07T03:07:55.900Z,10.70
2022-11-07T03:09:27.496Z,10.60
2022-11-07T03:10:59.476Z,10.60
2022-11-07T03:12:31.118Z,10.70
2022-11-07T03:14:02.760Z,10.60
2022-11-07T03:15:34.368Z,10.60
2022-11-07T03:17:06.013Z,10.60
2022-11-07T03:18:37.929Z,10.60
2022-11-07T03:20:10.159Z,10.60
2022-11-07T03:21:41.766Z,10.70
2022-11-07T03:23:13.937Z,10.60
2022-11-07T03:24:45.849Z,10.60
2022-11-07T03:26:17.488Z,10.70
2022-11-07T03:27:49.674Z,10.60
2022-11-07T03:29:21.405Z,10.70
2022-11-07T03:30:53.259Z,10.60
2022-11-07T03:32:24.989Z,10.70
2022-11-07T03:33:56.613Z,10.60
2022-11-07T03:35:28.287Z,10.70
2022-11-07T03:36:59.940Z,10.70
2022-11-07T03:38:31.575Z,10.70
2022-11-07T03:40:03.822Z,10.70
2022-11-07T03:41:35.441Z,10.70
2022-11-07T03:43:07.081Z,10.60
2022-11-07T03:44:38.733Z,10.70
2022-11-07T03:46:10.586Z,10.60
2022-11-07T03:47:43.680Z,10.60
2022-11-07T03:49:15.342Z,10.70
2022-11-07T03:50:47.004Z,10.70
2022-11-07T03:52:18.607Z,10.70
2022-11-07T03:53:50.220Z,10.70
2022-11-07T03:55:22.071Z,10.70
2022-11-07T03:56:53.737Z,10.70
2022-11-07T03:58:26.089Z,10.70
2022-11-07T03:59:57.719Z,10.70
2022-11-07T04:01:29.480Z,10.70
2022-11-07T04:03:01.270Z,10.70
2022-11-07T04:04:33.065Z,10.60
2022-11-07T04:06:04.996Z,10.60
2022-11-07T04:07:36.576Z,10.70
2022-11-07T04:09:08.568Z,10.70
2022-11-07T04:10:40.593Z,10.70
2022-11-07T04:12:30.724Z,10.70
2022-11-07T04:14:21.271Z,10.70
2022-11-07T04:16:17.281Z,10.60
2022-11-07T04:17:49.259Z,10.60
2022-11-07T04:19:20.908Z,10.70
2022-11-07T04:20:52.524Z,10.70
2022-11-07T04:22:25.652Z,10.70
2022-11-07T04:23:57.273Z,10.70
2022-11-07T04:25:47.723Z,10.70
2022-11-07T04:27:38.735Z,10.70
2022-11-07T04:29:10.424Z,10.70
2022-11-07T04:30:42.120Z,10.70
2022-11-07T04:32:13.889Z,10.70
2022-11-07T04:33:45.564Z,10.70
2022-11-07T04:35:18.078Z,10.60
2022-11-07T04:36:49.752Z,10.60
2022-11-07T04:38:21.409Z,10.70
2022-11-07T04:39:53.012Z,10.70
2022-11-07T04:41:24.695Z,10.70
2022-11-07T04:42:56.441Z,10.70
2022-11-07T04:44:28.112Z,10.70
2022-11-07T04:45:59.755Z,10.70
2022-11-07T04:47:34.188Z,10.70
2022-11-07T04:49:06.898Z,10.70
2022-11-07T04:50:39.078Z,10.70
2022-11-07T04:52:12.098Z,10.70
2022-11-07T04:53:43.847Z,10.70
2022-11-07T04:55:21.830Z,10.70
2022-11-07T04:56:53.460Z,10.60
2022-11-07T04:58:25.062Z,10.70
2022-11-07T04:59:56.647Z,10.70
2022-11-07T05:01:28.316Z,10.70
2022-11-07T05:03:00.083Z,10.70
2022-11-07T05:04:31.780Z,10.70
2022-11-07T05:06:04.596Z,10.70
2022-11-07T05:07:36.264Z,10.70
2022-11-07T05:09:09.245Z,10.70
2022-11-07T05:10:41.803Z,10.60
2022-11-07T05:12:13.394Z,10.70
2022-11-07T05:13:45.012Z,10.70
2022-11-07T05:15:17.316Z,10.70
2022-11-07T05:16:50.573Z,10.60
2022-11-07T05:18:24.927Z,10.70
2022-11-07T05:19:56.664Z,10.60
2022-11-07T05:21:28.336Z,10.70
2022-11-07T05:23:12.838Z,10.70
2022-11-07T05:24:44.990Z,10.70
2022-11-07T05:26:16.644Z,10.60
2022-11-07T05:27:48.270Z,10.70
2022-11-07T05:29:20.000Z,10.70
2022-11-07T05:30:51.836Z,10.70
2022-11-07T05:32:23.743Z,10.70
2022-11-07T05:33:55.437Z,10.70
2022-11-07T05:35:27.256Z,10.70
2022-11-07T05:36:58.928Z,10.70
2022-11-07T05:38:30.544Z,10.70
2022-11-07T05:40:02.157Z,10.70
2022-11-07T05:41:35.840Z,10.70
2022-11-07T05:43:12.711Z,10.70
2022-11-07T05:44:44.561Z,10.70
2022-11-07T05:46:16.163Z,10.70
2022-11-07T05:47:47.778Z,10.70
2022-11-07T05:49:19.382Z,10.70
2022-11-07T05:50:51.025Z,10.70
2022-11-07T05:52:22.756Z,10.70
2022-11-07T05:53:54.369Z,10.70
2022-11-07T05:55:26.029Z,10.70
2022-11-07T05:56:58.161Z,10.70
2022-11-07T05:58:29.814Z,10.70
2022-11-07T06:00:01.462Z,10.70
2022-11-07T06:01:33.195Z,10.70
2022-11-07T06:03:04.968Z,10.70
2022-11-07T06:04:36.626Z,10.80
2022-11-07T06:06:08.410Z,10.70
2022-11-07T06:07:43.117Z,10.80
2022-11-07T06:09:14.916Z,10.80
2022-11-07T06:10:46.577Z,10.80
2022-11-07T06:12:18.306Z,10.80
2022-11-07T06:13:50.846Z,10.80
2022-11-07T06:15:22.485Z,10.80
2022-11-07T06:16:54.165Z,10.80
2022-11-07T06:18:25.807Z,10.80
2022-11-07T06:19:57.438Z,10.80
2022-11-07T06:21:29.634Z,10.80
2022-11-07T06:23:04.297Z,10.80
2022-11-07T06:24:35.942Z,10.80
2022-11-07T06:26:07.583Z,10.80
2022-11-07T06:27:39.231Z,10.80
2022-11-07T06:29:10.935Z,10.80
2022-11-07T06:30:43.262Z,10.90
2022-11-07T06:32:15.002Z,10.90
2022-11-07T06:33:51.032Z,10.80
2022-11-07T06:35:22.817Z,10.90
2022-11-07T06:37:02.490Z,10.90
2022-11-07T06:38:35.774Z,10.90
2022-11-07T06:40:08.139Z,10.90
2022-11-07T06:41:39.875Z,10.90
2022-11-07T06:43:15.275Z,10.90
2022-11-07T06:44:47.162Z,10.90
2022-11-07T06:46:19.844Z,10.90
2022-11-07T06:47:54.680Z,10.90
2022-11-07T06:49:26.308Z,10.90
2022-11-07T06:51:02.239Z,10.90
2022-11-07T06:52:33.849Z,10.90
2022-11-07T06:54:05.577Z,10.90
2022-11-07T06:55:37.997Z,10.90
2022-11-07T06:57:09.944Z,10.90
2022-11-07T06:58:41.725Z,10.90
2022-11-07T07:00:14.242Z,10.90
2022-11-07T07:01:45.886Z,10.90
2022-11-07T07:03:18.374Z,10.90
2022-11-07T07:04:50.199Z,10.90
2022-11-07T07:06:21.827Z,10.90
2022-11-07T07:07:55.290Z,10.90
2022-11-07T07:09:28.177Z,10.90
2022-11-07T07:11:09.115Z,10.90
2022-11-07T07:12:42.123Z,10.90
2022-11-07T07:14:13.816Z,10.90
2022-11-07T07:15:53.900Z,10.90
2022-11-07T07:17:25.498Z,11.00
2022-11-07T07:18:57.202Z,11.00
2022-11-07T07:20:30.158Z,10.90
2022-11-07T07:22:01.939Z,10.90
2022-11-07T07:23:38.374Z,10.90
2022-11-07T07:25:10.166Z,11.00
2022-11-07T07:26:41.774Z,11.00
2022-11-07T07:28:13.650Z,11.00
2022-11-07T07:29:45.454Z,11.00
2022-11-07T07:31:17.036Z,11.00
2022-11-07T07:32:48.711Z,11.00
2022-11-07T07:34:20.354Z,11.00
2022-11-07T07:35:52.074Z,11.00
2022-11-07T07:37:23.662Z,11.00
2022-11-07T07:38:55.318Z,11.00
2022-11-07T07:40:26.976Z,11.10
2022-11-07T07:41:58.662Z,11.00
2022-11-07T07:43:31.163Z,11.00
2022-11-07T07:45:02.867Z,11.10
2022-11-07T07:46:34.503Z,11.10
2022-11-07T07:48:06.268Z,11.10
2022-11-07T07:49:37.900Z,11.10
2022-11-07T07:51:09.588Z,11.10
2022-11-07T07:52:41.350Z,11.10
2022-11-07T07:54:18.679Z,11.10
2022-11-07T07:55:57.955Z,11.10
2022-11-07T07:57:29.640Z,11.10
2022-11-07T07:59:02.529Z,11.10
2022-11-07T08:00:34.283Z,11.20
2022-11-07T08:02:09.383Z,11.10
2022-11-07T08:04:00.066Z,11.20
2022-11-07T08:05:32.328Z,11.20
2022-11-07T08:07:04.185Z,11.20
2022-11-07T08:08:38.350Z,11.20
2022-11-07T08:10:39.558Z,11.20
2022-11-07T08:12:03.178Z,11.20
2022-11-07T08:13:35.974Z,11.30
2022-11-07T08:15:08.203Z,11.30
2022-11-07T08:16:39.875Z,11.20
2022-11-07T08:18:11.508Z,11.20
2022-11-07T08:19:43.159Z,11.30
2022-11-07T08:21:14.802Z,11.30
2022-11-07T08:22:46.687Z,11.30
2022-11-07T08:24:18.673Z,11.30
2022-11-07T08:25:58.688Z,11.30
2022-11-07T08:27:30.338Z,11.30
2022-11-07T08:29:02.101Z,11.30
2022-11-07T08:30:34.880Z,11.30
2022-11-07T08:32:06.500Z,11.30
2022-11-07T08:33:38.828Z,11.30
2022-11-07T08:35:10.544Z,11.40
2022-11-07T08:36:42.198Z,11.40
2022-11-07T08:38:13.871Z,11.40
2022-11-07T08:39:45.853Z,11.40
2022-11-07T08:41:21.970Z,11.40
2022-11-07T08:42:59.215Z,11.40
2022-11-07T08:44:34.710Z,11.50
2022-11-07T08:46:06.399Z,11.40
2022-11-07T08:47:38.060Z,11.40
2022-11-07T08:49:09.673Z,11.50
2022-11-07T08:50:41.349Z,11.50
2022-11-07T08:52:12.988Z,11.50
2022-11-07T08:53:44.674Z,11.50
2022-11-07T08:55:16.404Z,11.50
2022-11-07T08:56:48.673Z,11.50
2022-11-07T08:58:21.871Z,11.50
2022-11-07T08:59:58.618Z,11.50
2022-11-07T09:01:30.403Z,11.50
2022-11-07T09:04:58.210Z,11.60
2022-11-07T09:06:29.857Z,11.60
2022-11-07T09:08:01.459Z,11.60
2022-11-07T09:09:33.126Z,11.60
2022-11-07T09:11:05.672Z,11.60
2022-11-07T09:12:44.825Z,11.60
2022-11-07T09:14:16.455Z,11.60
2022-11-07T09:15:51.575Z,11.70
2022-11-07T09:17:23.544Z,11.70
2022-11-07T09:18:55.255Z,11.70
2022-11-07T09:20:26.885Z,11.70
2022-11-07T09:21:58.565Z,11.70
2022-11-07T09:23:30.272Z,11.70
2022-11-07T09:25:02.119Z,11.70
2022-11-07T09:26:33.759Z,11.70
2022-11-07T09:28:05.596Z,11.70
2022-11-07T09:29:37.356Z,11.70
2022-11-07T09:31:09.089Z,11.70
2022-11-07T09:32:45.665Z,11.70
2022-11-07T09:34:17.632Z,11.70
2022-11-07T09:35:50.014Z,11.70
2022-11-07T09:37:21.785Z,11.80
2022-11-07T09:38:56.026Z,11.70
2022-11-07T09:40:43.855Z,11.70
2022-11-07T09:42:29.626Z,11.70
2022-11-07T09:44:32.442Z,11.70
2022-11-07T09:46:16.900Z,11.70
2022-11-07T09:47:55.113Z,11.70
2022-11-07T09:49:32.446Z,11.70
2022-11-07T09:51:04.658Z,11.70
2022-11-07T09:52:52.992Z,11.70
2022-11-07T09:54:28.433Z,11.70
2022-11-07T09:56:03.943Z,11.70
2022-11-07T09:57:37.578Z,11.70
2022-11-07T09:59:20.347Z,11.70
2022-11-07T10:00:54.688Z,11.70
2022-11-07T10:02:34.442Z,11.70
2022-11-07T10:06:16.781Z,11.70
2022-11-07T10:08:07.351Z,11.80
2022-11-07T10:10:10.198Z,11.70
2022-11-07T10:11:56.149Z,11.80
2022-11-07T10:13:51.743Z,11.80
2022-11-07T10:15:44.552Z,11.80
2022-11-07T10:17:36.005Z,11.80
2022-11-07T10:19:16.650Z,11.80
2022-11-07T10:21:38.522Z,11.80
2022-11-07T10:23:29.029Z,11.80
2022-11-07T10:25:33.198Z,11.80
2022-11-07T10:27:10.563Z,11.80
2022-11-07T10:28:50.085Z,11.80
2022-11-07T10:30:22.474Z,11.80
2022-11-07T10:32:21.018Z,11.80
2022-11-07T10:33:56.554Z,11.90
2022-11-07T10:35:31.398Z,11.90
2022-11-07T10:37:04.154Z,11.90
2022-11-07T10:38:42.013Z,11.90
2022-11-07T10:40:18.876Z,11.90
2022-11-07T10:42:12.519Z,12.00
2022-11-07T10:43:47.028Z,12.00
2022-11-07T10:45:18.728Z,12.00
2022-11-07T10:46:53.409Z,12.00
2022-11-07T10:48:29.351Z,12.00
2022-11-07T10:50:17.676Z,12.00
2022-11-07T10:51:50.648Z,12.10
2022-11-07T10:53:24.972Z,12.00
2022-11-07T10:55:06.673Z,12.10
2022-11-07T10:56:47.106Z,12.10
2022-11-07T10:58:23.097Z,12.10
2022-11-07T10:59:57.166Z,12.10
2022-11-07T11:01:29.058Z,12.10
2022-11-07T11:03:00.814Z,12.20
2022-11-07T11:04:37.610Z,12.10
2022-11-07T11:06:18.523Z,12.20
2022-11-07T11:07:50.762Z,12.20
2022-11-07T11:09:23.292Z,12.20
2022-11-07T11:10:54.988Z,12.20
2022-11-07T11:12:32.149Z,12.20
2022-11-07T11:14:11.958Z,12.20
2022-11-07T11:15:45.931Z,12.20
2022-11-07T11:17:25.353Z,12.20
2022-11-07T11:19:01.564Z,12.20
2022-11-07T11:21:02.764Z,12.20
2022-11-07T11:22:41.361Z,12.20
2022-11-07T11:24:39.455Z,12.20
2022-11-07T11:26:31.740Z,12.20
2022-11-07T11:28:08.128Z,12.20
2022-11-07T11:29:54.712Z,12.30
2022-11-07T11:31:45.860Z,12.20
2022-11-07T11:33:25.111Z,12.20
2022-11-07T11:34:59.458Z,12.30
2022-11-07T11:36:40.493Z,12.20
2022-11-07T11:38:17.623Z,12.30
2022-11-07T11:39:58.543Z,12.30
2022-11-07T11:41:51.564Z,12.30
2022-11-07T11:43:26.835Z,12.30
2022-11-07T11:45:09.331Z,12.30
2022-11-07T11:46:51.848Z,12.30
2022-11-07T11:48:25.832Z,12.40
2022-11-07T11:50:04.744Z,12.40
2022-11-07T11:51:43.772Z,12.40
2022-11-07T11:53:18.958Z,12.50
2022-11-07T11:54:52.388Z,12.50
2022-11-07T11:56:34.999Z,12.50
2022-11-07T11:58:12.574Z,12.50
2022-11-07T12:00:00.704Z,12.50
2022-11-07T12:01:44.456Z,12.50
2022-11-07T12:03:41.625Z,12.50
2022-11-07T12:05:48.340Z,12.50
2022-11-07T12:07:39.616Z,12.50
2022-11-07T12:09:20.176Z,12.50
2022-11-07T12:11:14.960Z,12.60
2022-11-07T12:13:01.600Z,12.60
2022-11-07T12:14:45.618Z,12.60
2022-11-07T12:16:26.603Z,12.60
2022-11-07T12:18:24.932Z,12.60
2022-11-07T12:20:06.060Z,12.60
2022-11-07T12:21:51.320Z,12.60
2022-11-07T12:23:57.673Z,12.60
2022-11-07T12:25:52.157Z,12.60
2022-11-07T12:27:34.128Z,12.70
2022-11-07T12:29:24.282Z,12.70
2022-11-07T12:30:59.082Z,12.60
2022-11-07T12:32:46.109Z,12.70
2022-11-07T12:34:52.360Z,12.60
2022-11-07T12:36:34.610Z,12.70
2022-11-07T12:38:35.397Z,12.70
2022-11-07T12:40:27.932Z,12.70
2022-11-07T12:42:08.532Z,12.70
2022-11-07T12:43:58.265Z,12.70
2022-11-07T12:45:52.569Z,12.70
2022-11-07T12:47:37.738Z,12.70
2022-11-07T12:49:23.824Z,12.70
2022-11-07T12:51:09.382Z,12.70
2022-11-07T12:53:04.945Z,12.70
2022-11-07T12:54:40.252Z,12.70
2022-11-07T12:56:15.417Z,12.70
2022-11-07T12:57:50.049Z,12.70
2022-11-07T12:59:32.214Z,12.80
2022-11-07T13:01:05.698Z,12.70
2022-11-07T13:02:48.136Z,12.70
2022-11-07T13:04:34.538Z,12.70
2022-11-07T13:06:45.039Z,12.70
2022-11-07T13:08:37.129Z,12.70
2022-11-07T13:10:21.259Z,12.70
2022-11-07T13:11:58.771Z,12.70
2022-11-07T13:13:42.387Z,12.70
2022-11-07T13:15:15.915Z,12.70
2022-11-07T13:17:09.185Z,12.70
2022-11-07T13:20:31.203Z,12.70
2022-11-07T13:22:22.735Z,12.70
2022-11-07T13:24:05.951Z,12.70
2022-11-07T13:25:37.779Z,12.70
2022-11-07T13:27:22.728Z,12.80
2022-11-07T13:29:02.176Z,12.70
2022-11-07T13:30:37.772Z,12.70
2022-11-07T13:32:13.356Z,12.80
2022-11-07T13:33:45.038Z,12.70
2022-11-07T13:35:22.906Z,12.80
2022-11-07T13:37:00.704Z,12.80
2022-11-07T13:38:32.443Z,12.80
2022-11-07T13:40:24.151Z,12.80
2022-11-07T13:41:56.515Z,12.80
2022-11-07T13:43:42.970Z,12.80
2022-11-07T13:45:31.932Z,12.80
2022-11-07T13:47:13.351Z,12.80
2022-11-07T13:48:55.342Z,12.80
2022-11-07T13:50:43.704Z,12.80
2022-11-07T13:52:33.435Z,12.80
2022-11-07T13:54:27.029Z,12.80
2022-11-07T13:56:29.622Z,12.80
2022-11-07T13:58:06.834Z,12.80
2022-11-07T13:59:47.679Z,12.80
2022-11-07T14:01:19.567Z,12.90
2022-11-07T14:02:55.124Z,12.80
2022-11-07T14:04:28.995Z,12.90
2022-11-07T14:06:02.473Z,12.90
2022-11-07T14:07:38.016Z,12.90
2022-11-07T14:09:14.129Z,12.90
2022-11-07T14:10:49.036Z,12.90
2022-11-07T14:12:22.086Z,12.90
2022-11-07T14:13:54.385Z,12.90
2022-11-07T14:15:26.113Z,12.90
2022-11-07T14:17:00.687Z,12.90
2022-11-07T14:18:37.599Z,12.90
2022-11-07T14:20:14.103Z,12.90
2022-11-07T14:21:46.794Z,12.90
2022-11-07T14:23:22.108Z,12.90
2022-11-07T14:24:56.249Z,12.90
2022-11-07T14:26:33.702Z,12.90
2022-11-07T14:28:16.719Z,12.90
2022-11-07T14:29:59.901Z,12.90
2022-11-07T14:31:34.146Z,12.90
2022-11-07T14:33:06.875Z,13.00
2022-11-07T14:34:44.741Z,12.90
2022-11-07T14:36:17.306Z,12.90
2022-11-07T14:37:49.261Z,13.00
2022-11-07T14:39:22.469Z,13.00
2022-11-07T14:41:01.217Z,13.00
2022-11-07T14:42:32.888Z,13.00
2022-11-07T14:44:12.764Z,13.00
2022-11-07T14:47:37.229Z,13.00
2022-11-07T14:49:26.604Z,13.00
2022-11-07T14:50:59.738Z,13.00
2022-11-07T14:52:38.486Z,13.00
2022-11-07T14:54:16.766Z,13.10
2022-11-07T14:55:53.136Z,13.00
2022-11-07T14:57:24.901Z,13.00
2022-11-07T14:58:57.578Z,13.00
2022-11-07T15:00:30.153Z,13.00
2022-11-07T15:02:16.665Z,13.00
2022-11-07T15:04:16.548Z,13.00
2022-11-07T15:05:48.215Z,13.00
2022-11-07T15:07:33.356Z,13.00
2022-11-07T15:09:12.253Z,13.00
2022-11-07T15:10:44.653Z,13.00
2022-11-07T15:12:19.934Z,13.00
2022-11-07T15:13:52.393Z,13.00
2022-11-07T15:15:25.780Z,13.00
2022-11-07T15:16:58.528Z,13.00
2022-11-07T15:18:32.317Z,13.00
2022-11-07T15:20:07.987Z,13.00
2022-11-07T15:21:55.161Z,13.10
2022-11-07T15:23:33.581Z,13.00
2022-11-07T15:25:32.019Z,13.00
2022-11-07T15:27:17.538Z,13.00
2022-11-07T15:28:51.832Z,13.00
2022-11-07T15:30:33.865Z,13.00
2022-11-07T15:32:12.157Z,13.00
2022-11-07T15:33:43.810Z,13.00
2022-11-07T15:35:42.592Z,13.00
2022-11-07T15:37:20.129Z,13.00
2022-11-07T15:38:52.584Z,13.00
2022-11-07T15:40:25.789Z,13.00
2022-11-07T15:41:57.422Z,13.00
2022-11-07T15:43:29.098Z,13.00
2022-11-07T15:45:00.722Z,13.00
2022-11-07T15:46:38.421Z,13.00
2022-11-07T15:48:19.457Z,13.00
2022-11-07T15:49:51.446Z,13.00
2022-11-07T15:51:23.138Z,13.00
2022-11-07T15:52:54.906Z,13.00
2022-11-07T15:54:27.740Z,13.00
2022-11-07T15:56:01.792Z,13.00
2022-11-07T15:57:33.850Z,13.00
2022-11-07T15:59:14.770Z,13.00
2022-11-07T16:00:46.454Z,13.00
2022-11-07T16:02:18.351Z,13.00
2022-11-07T16:03:50.158Z,13.00
2022-11-07T16:05:21.845Z,13.00
2022-11-07T16:06:53.704Z,13.00
2022-11-07T16:08:25.455Z,13.00
2022-11-07T16:09:57.127Z,13.00
2022-11-07T16:11:28.864Z,13.00
2022-11-07T16:13:04.866Z,13.00
2022-11-07T16:14:43.912Z,13.00
2022-11-07T16:16:23.263Z,13.00
2022-11-07T16:17:55.251Z,13.00
2022-11-07T16:19:29.913Z,13.00
2022-11-07T16:21:01.569Z,13.00
2022-11-07T16:22:33.211Z,13.00
2022-11-07T16:24:05.211Z,13.00
2022-11-07T16:25:40.680Z,13.00
2022-11-07T16:27:17.152Z,13.00
2022-11-07T16:28:49.403Z,13.00
2022-11-07T16:30:22.135Z,13.10
2022-11-07T16:31:53.841Z,13.00
2022-11-07T16:33:26.375Z,13.00
2022-11-07T16:34:57.985Z,13.00
2022-11-07T16:36:35.268Z,13.00
2022-11-07T16:38:18.588Z,13.00
2022-11-07T16:39:50.349Z,13.00
2022-11-07T16:41:22.744Z,13.00
2022-11-07T16:42:54.452Z,13.00
2022-11-07T16:44:26.689Z,13.00
2022-11-07T16:45:58.384Z,13.00
2022-11-07T16:47:32.305Z,13.00
2022-11-07T16:49:18.480Z,13.00
2022-11-07T16:50:50.364Z,13.00
2022-11-07T16:52:23.856Z,13.00
2022-11-07T16:53:55.531Z,13.00
2022-11-07T16:55:27.261Z,13.00
2022-11-07T16:56:58.961Z,13.00
2022-11-07T16:58:33.476Z,13.00
2022-11-07T17:00:05.635Z,13.00
2022-11-07T17:01:38.069Z,13.10
2022-11-07T17:03:12.221Z,13.00
2022-11-07T17:04:44.204Z,13.00
2022-11-07T17:06:30.188Z,13.00
2022-11-07T17:08:03.993Z,13.00
2022-11-07T17:09:35.635Z,13.00
2022-11-07T17:11:07.980Z,13.00
2022-11-07T17:12:39.663Z,13.00
2022-11-07T17:14:11.523Z,13.00
2022-11-07T17:15:43.793Z,13.10
2022-11-07T17:17:17.469Z,13.00
2022-11-07T17:18:49.877Z,13.00
2022-11-07T17:20:49.276Z,13.00
2022-11-07T17:22:15.309Z,13.10
2022-11-07T17:23:47.024Z,13.00
2022-11-07T17:25:21.409Z,13.00
2022-11-07T17:26:53.026Z,13.10
2022-11-07T17:28:24.889Z,13.00
2022-11-07T17:29:56.943Z,13.00
2022-11-07T17:31:28.692Z,13.00
2022-11-07T17:33:00.351Z,13.00
2022-11-07T17:34:31.954Z,13.10
2022-11-07T17:36:04.591Z,13.10
2022-11-07T17:37:36.587Z,13.00
2022-11-07T17:39:12.010Z,13.10
2022-11-07T17:40:43.774Z,13.10
2022-11-07T17:42:15.709Z,13.10
2022-11-07T17:43:48.690Z,13.10
2022-11-07T17:45:20.311Z,13.10
2022-11-07T17:46:52.086Z,13.10
2022-11-07T17:48:23.698Z,13.10
2022-11-07T17:49:55.894Z,13.10
2022-11-07T17:51:28.082Z,13.10
2022-11-07T17:53:00.220Z,13.10
2022-11-07T17:54:31.818Z,13.10
2022-11-07T17:56:04.574Z,13.10
2022-11-07T17:57:37.941Z,13.10
2022-11-07T17:59:14.934Z,13.10
2022-11-07T18:00:46.593Z,13.10
2022-11-07T18:02:19.762Z,13.10
2022-11-07T18:03:52.958Z,13.10
2022-11-07T18:05:31.786Z,13.10
2022-11-07T18:07:04.760Z,13.10
2022-11-07T18:08:51.836Z,13.10
2022-11-07T18:10:24.179Z,13.10
2022-11-07T18:11:55.803Z,13.10
2022-11-07T18:13:27.501Z,13.10
2022-11-07T18:14:59.245Z,13.10
2022-11-07T18:16:33.557Z,13.10
2022-11-07T18:18:10.660Z,13.10
2022-11-07T18:19:42.879Z,13.10
2022-11-07T18:21:14.539Z,13.10
2022-11-07T18:22:46.251Z,13.10
2022-11-07T18:24:18.142Z,13.10
2022-11-07T18:25:49.762Z,13.10
2022-11-07T18:27:21.374Z,13.10
2022-11-07T18:28:56.343Z,13.10
2022-11-07T18:30:28.883Z,13.10
2022-11-07T18:32:00.702Z,13.10
2022-11-07T18:33:32.893Z,13.10
2022-11-07T18:35:05.808Z,13.10
2022-11-07T18:36:39.745Z,13.10
2022-11-07T18:38:11.381Z,13.10
2022-11-07T18:39:43.064Z,13.10
2022-11-07T18:41:17.571Z,13.10
2022-11-07T18:42:49.232Z,13.10
2022-11-07T18:44:21.083Z,13.10
2022-11-07T18:45:55.888Z,13.10
2022-11-07T18:47:29.400Z,13.10
2022-11-07T18:49:05.404Z,13.10
2022-11-07T18:50:39.777Z,13.10
2022-11-07T18:52:11.516Z,13.10
2022-11-07T18:53:44.725Z,13.20
2022-11-07T18:55:16.444Z,13.10
2022-11-07T18:56:49.008Z,13.10
2022-11-07T18:58:20.707Z,13.10
2022-11-07T18:59:52.389Z,13.10
2022-11-07T19:01:28.174Z,13.10
2022-11-07T19:03:00.194Z,13.10
2022-11-07T19:04:32.096Z,13.10
2022-11-07T19:06:06.042Z,13.10
2022-11-07T19:07:42.213Z,13.20
2022-11-07T19:09:13.851Z,13.10
2022-11-07T19:10:45.500Z,13.10
2022-11-07T19:12:17.154Z,13.10
2022-11-07T19:13:48.900Z,13.10
2022-11-07T19:15:24.765Z,13.10
2022-11-07T19:16:57.391Z,13.10
2022-11-07T19:18:29.073Z,13.10
2022-11-07T19:20:00.676Z,13.10
2022-11-07T19:21:36.231Z,13.10
2022-11-07T19:23:11.417Z,13.10
2022-11-07T19:24:43.074Z,13.10
2022-11-07T19:26:15.437Z,13.10
2022-11-07T19:27:47.441Z,13.10
2022-11-07T19:29:19.142Z,13.10
2022-11-07T19:30:50.889Z,13.10
2022-11-07T19:32:22.553Z,13.10
2022-11-07T19:33:54.561Z,13.10
2022-11-07T19:35:26.266Z,13.10
2022-11-07T19:36:57.933Z,13.10
2022-11-07T19:38:30.342Z,13.10
2022-11-07T19:40:01.974Z,13.10
2022-11-07T19:41:33.982Z,13.10
2022-11-07T19:43:09.271Z,13.10
2022-11-07T19:44:47.638Z,13.10
2022-11-07T19:46:23.257Z,13.10
2022-11-07T19:47:55.273Z,13.10
2022-11-07T19:49:27.079Z,13.10
2022-11-07T19:50:58.877Z,13.10
2022-11-07T19:52:30.518Z,13.10
2022-11-07T19:54:03.055Z,13.10
2022-11-07T19:55:36.667Z,13.10
2022-11-07T19:57:08.382Z,13.10
2022-11-07T19:58:41.101Z,13.10
2022-11-07T20:00:13.173Z,13.10
2022-11-07T20:01:58.740Z,13.10
2022-11-07T20:03:37.427Z,13.10
2022-11-07T20:05:09.221Z,13.10
2022-11-07T20:06:40.865Z,13.10
2022-11-07T20:08:12.559Z,13.10
2022-11-07T20:09:44.490Z,13.10
2022-11-07T20:11:18.636Z,13.10
2022-11-07T20:12:50.676Z,13.10
2022-11-07T20:14:22.610Z,13.10
2022-11-07T20:15:57.555Z,13.10
2022-11-07T20:17:29.235Z,13.10
2022-11-07T20:19:01.556Z,13.10
2022-11-07T20:20:33.218Z,13.10
2022-11-07T20:22:04.942Z,13.10
2022-11-07T20:23:36.639Z,13.10
2022-11-07T20:25:08.656Z,13.10
2022-11-07T20:26:42.382Z,13.10
2022-11-07T20:28:14.035Z,13.10
2022-11-07T20:29:45.663Z,13.10
2022-11-07T20:31:23.212Z,13.10
2022-11-07T20:32:54.885Z,13.10
2022-11-07T20:34:26.520Z,13.10
2022-11-07T20:36:00.899Z,13.10
2022-11-07T20:37:32.562Z,13.10